Danville, KY

7:14 PM EST on March 01, 2015 (GMT -0500)
Capital City | Change Station
CLOSE
Current Station
Airport
Location: Frankfort,
Elevation: 804 ft
Nearby Weather Stations
Active Advisory: Special Statement

Elev 804 ft 38.18 °N, 84.90 °W | Updated 21 minutes ago

Overcast
Overcast
37 °F
Feels Like 33 °F
N
5
Wind Variable Wind from WNW

Today
High -- | Low -- °F
--% Chance of Precip.
Yesterday
High -- | Low -- °F
Precip. -- in
7:10 AM 6:32 PM
Waxing Gibbous, 88% visible
Pressure 30.30 in
Visibility 2.0 miles
Clouds Overcast 300 ft
Windchill 33 °F
Dew Point 36 °F
Humidity 96%
Rainfall 0.21 in
Snow Depth Not available.
UV 0 out of 12
Pollen .60 out of 12
Air Quality Not available.
Flu Activity Not available.
METAR KFFT 012353Z AUTO 30004KT 2SM BR OVC003 03/02 A3028 RMK AO2 CIG 003V008 SLP259 60000 T00280022 10056 20028 53005

More Conditions Fewer Conditions

Pressure 30.30 in
Visibility 2.0 miles
Clouds Overcast 300 ft
Windchill 33 °F
Dew Point 36 °F
Humidity 96%
Rainfall 0.21 in
Snow Depth Not available.
UV 0 out of 12
Pollen .60 out of 12
Air Quality Not available.
Flu Activity Not available.
METAR KFFT 012353Z AUTO 30004KT 2SM BR OVC003 03/02 A3028 RMK AO2 CIG 003V008 SLP259 60000 T00280022 10056 20028 53005

More Conditions Fewer Conditions

10-Day Weather Forecast

Almanac

Astronomy

Mar. 01, 2015 Rise Set
Actual Time
Civil Twilight
Nautical Twilight
Astronomical Twilight
Moon
Length of Visible Light
Length of Day
Tomorrow will be .
, % of the Moon is Illuminated

Today's Extremes

State Highs State Lows

Community

WunderPhotos

Upload Photos

1,801,642 photos uploaded!

WunderBlogs® & News

Nearby

Air Quality

  Air Quality AQ Index Pollutant
Not available.

Snow Depth

Station Depth Elevation

Earthquake Activity

City Distance Mag. Time & Date
Minimum magnitude displayed is 2.5.

Coastal Water Temperatures

Place Temperature

Nearby Weather Stations

Special Statement
Statement as of 5:13 PM CST on March 01, 2015

... Areas of dense fog this evening and freezing drizzle possible
overnight...

Areas of dense fog have developed this evening and will reduce
visibilities to near zero in spots. The fog is expected to improve
later this evening as drier air begins to work into the region. Use
caution if traveling across central Kentucky this evening.

Freezing drizzle is possible overnight across south central
Kentucky as temperatures are expected to fall to around 30
degrees... and this could make for slick and icy roads for the
Monday morning commute. If traveling overnight or Monday
morning... give yourself extra time to reach your destination as
there may be slick spots... especially on secondary... sheltered and
untreated surfaces.


Bjs